Time;durP1;ratioP1;P1;durP2;ratioP2;P2;SDS_P1;SDS_P2;PMS_P1;PMS_P2;Temp;Humidity;BMP_temperature;BMP_pressure;BME280_temperature;BME280_humidity;BME280_pressure;Samples;Min_cycle;Max_cycle;Signal;HPM_P1;HPM_P2
2022/06/06 00:02:16;;;;;;;21.42;13.50;;;15.30;99.90;;;;;;5078727;28;20041;-66
2022/06/06 00:04:41;;;;;;;23.33;12.38;;;15.30;99.90;;;;;;5073055;28;20116;-66
2022/06/06 00:07:07;;;;;;;22.98;13.15;;;15.20;99.90;;;;;;5068176;28;20036;-66
2022/06/06 00:09:32;;;;;;;19.52;12.63;;;15.30;99.90;;;;;;5070740;28;20143;-65
2022/06/06 00:12:00;;;;;;;20.42;12.45;;;15.20;99.90;;;;;;5069561;28;20037;-66
2022/06/06 00:14:26;;;;;;;19.85;11.70;;;15.20;99.90;;;;;;5069904;28;20445;-66
2022/06/06 00:16:52;;;;;;;21.50;12.32;;;15.20;99.90;;;;;;5072057;28;20031;-66
2022/06/06 00:19:18;;;;;;;19.27;12.93;;;15.20;99.90;;;;;;5078472;28;20054;-66
2022/06/06 00:21:43;;;;;;;22.70;13.07;;;15.20;99.90;;;;;;5069629;28;20029;-66
2022/06/06 00:24:11;;;;;;;22.92;12.90;;;15.00;99.90;;;;;;5071364;28;20039;-66
2022/06/06 00:26:37;;;;;;;21.80;12.30;;;15.10;99.90;;;;;;5068433;28;20346;-66
2022/06/06 00:29:04;;;;;;;20.98;11.48;;;14.90;99.90;;;;;;5072185;28;20048;-65
2022/06/06 00:37:01;;;;;;;20.77;11.38;;;14.90;99.90;;;;;;5065656;28;20048;-65
2022/06/06 00:39:27;;;;;;;18.42;11.05;;;14.80;99.90;;;;;;5065976;28;20464;-65
2022/06/06 00:41:55;;;;;;;18.35;10.60;;;14.90;99.90;;;;;;5067525;28;20071;-65
2022/06/06 00:44:24;;;;;;;18.05;10.30;;;14.90;99.90;;;;;;5065767;28;20056;-65
2022/06/06 00:47:16;;;;;;;19.15;10.55;;;14.80;99.90;;;;;;5067344;28;20400;-64
2022/06/06 00:49:51;;;;;;;19.08;9.90;;;14.90;99.90;;;;;;5060976;28;20053;-64
2022/06/06 00:52:27;;;;;;;18.63;10.18;;;14.90;99.90;;;;;;5064555;28;20831;-65
2022/06/06 00:54:56;;;;;;;20.05;10.07;;;14.70;99.90;;;;;;5062182;28;20153;-64
2022/06/06 00:57:27;;;;;;;19.77;9.77;;;14.70;99.90;;;;;;5066116;28;20044;-65
2022/06/06 00:59:53;;;;;;;18.15;9.60;;;14.50;99.90;;;;;;5073894;28;20033;-64
2022/06/06 01:02:19;;;;;;;14.38;9.10;;;14.50;99.90;;;;;;5066897;28;20119;-64
2022/06/06 01:04:45;;;;;;;22.52;10.02;;;14.60;99.90;;;;;;5074796;28;20123;-64
2022/06/06 01:07:12;;;;;;;20.17;9.93;;;14.50;99.90;;;;;;5070160;28;20037;-64
2022/06/06 01:09:40;;;;;;;19.08;9.68;;;14.60;99.90;;;;;;5068798;28;20064;-63
2022/06/06 01:12:13;;;;;;;13.75;8.85;;;14.50;99.90;;;;;;5072868;28;20138;-64
2022/06/06 01:14:48;;;;;;;15.15;8.90;;;14.70;99.90;;;;;;5073846;28;20062;-63
2022/06/06 01:17:39;;;;;;;15.75;8.65;;;14.70;99.90;;;;;;5074488;28;20040;-63
2022/06/06 01:20:28;;;;;;;13.00;7.50;;;14.70;99.90;;;;;;5064304;28;20098;-64
2022/06/06 01:23:09;;;;;;;16.50;8.02;;;14.50;99.90;;;;;;5069281;28;20117;-64
2022/06/06 01:25:54;;;;;;;12.25;7.32;;;14.60;99.90;;;;;;5069904;28;20041;-64
2022/06/06 01:28:32;;;;;;;13.20;7.35;;;14.70;99.90;;;;;;5065362;28;20079;-65
2022/06/06 01:31:02;;;;;;;11.68;6.57;;;14.50;99.90;;;;;;5070312;28;20377;-64
2022/06/06 01:33:28;;;;;;;15.23;6.90;;;14.70;99.90;;;;;;5078689;28;20032;-64
2022/06/06 01:36:00;;;;;;;10.15;6.28;;;14.70;99.90;;;;;;5076533;28;20035;-64
2022/06/06 01:38:26;;;;;;;11.80;6.68;;;14.80;99.90;;;;;;5067113;28;20040;-63
2022/06/06 01:41:00;;;;;;;13.98;6.85;;;14.60;99.90;;;;;;5072563;28;20043;-64
2022/06/06 01:43:31;;;;;;;11.90;6.35;;;14.20;99.90;;;;;;5069112;28;20904;-64
2022/06/06 01:46:03;;;;;;;10.85;6.30;;;14.70;99.90;;;;;;5070498;28;20058;-65
2022/06/06 01:48:34;;;;;;;12.13;6.82;;;14.30;99.90;;;;;;5082936;28;20075;-64
2022/06/06 01:51:14;;;;;;;12.57;6.93;;;14.20;99.90;;;;;;5070573;28;20032;-65
2022/06/06 01:53:40;;;;;;;11.63;6.47;;;14.30;99.90;;;;;;5077982;28;20036;-65
2022/06/06 01:56:09;;;;;;;13.38;7.05;;;14.30;99.90;;;;;;5068298;28;20052;-65
2022/06/06 01:58:35;;;;;;;9.75;6.88;;;14.50;99.90;;;;;;5067426;28;20041;-64
2022/06/06 02:01:02;;;;;;;9.70;6.97;;;14.40;99.90;;;;;;5084689;28;20059;-65
2022/06/06 02:03:28;;;;;;;12.48;7.90;;;14.40;99.90;;;;;;5066194;28;20775;-64
2022/06/06 02:05:54;;;;;;;11.90;7.53;;;14.60;99.90;;;;;;5069074;28;20040;-65
2022/06/06 02:08:20;;;;;;;12.80;7.82;;;14.40;99.90;;;;;;5072713;28;20510;-65
2022/06/06 02:10:46;;;;;;;14.95;8.95;;;14.40;99.90;;;;;;5072903;28;20036;-64
2022/06/06 02:13:12;;;;;;;15.63;8.95;;;14.20;99.90;;;;;;5065376;28;20492;-65
2022/06/06 02:15:38;;;;;;;11.68;8.07;;;14.00;99.90;;;;;;5070300;28;20464;-64
2022/06/06 02:18:04;;;;;;;11.77;7.50;;;14.40;99.90;;;;;;5066567;28;20426;-65
2022/06/06 02:20:31;;;;;;;18.75;8.88;;;14.40;99.90;;;;;;5068860;28;20071;-63
2022/06/06 02:22:57;;;;;;;14.00;8.68;;;14.00;99.90;;;;;;5073833;28;20404;-66
2022/06/06 02:25:24;;;;;;;14.98;9.15;;;14.10;99.90;;;;;;5079388;28;20497;-65
2022/06/06 02:27:50;;;;;;;15.57;8.98;;;14.20;99.90;;;;;;5069323;28;20085;-64
2022/06/06 02:30:24;;;;;;;15.60;9.45;;;14.10;99.90;;;;;;5072235;28;20440;-64
2022/06/06 02:32:50;;;;;;;14.75;9.20;;;14.00;99.90;;;;;;5081545;28;20074;-64
2022/06/06 02:35:20;;;;;;;15.10;9.15;;;14.40;99.90;;;;;;5070014;28;20067;-65
2022/06/06 02:37:47;;;;;;;19.38;9.20;;;14.10;99.90;;;;;;5077450;28;20445;-65
2022/06/06 02:40:17;;;;;;;18.50;9.93;;;14.10;99.90;;;;;;5073901;28;20039;-65
2022/06/06 02:42:43;;;;;;;15.75;9.13;;;14.30;99.90;;;;;;5083851;28;20684;-66
2022/06/06 02:45:12;;;;;;;21.05;9.60;;;14.00;99.90;;;;;;5071853;28;20462;-65
2022/06/06 02:47:38;;;;;;;18.60;9.43;;;13.90;99.90;;;;;;5074619;28;20052;-65
2022/06/06 02:50:06;;;;;;;13.52;9.38;;;14.00;99.90;;;;;;5082564;28;20040;-66
2022/06/06 02:52:33;;;;;;;14.23;9.02;;;14.00;99.90;;;;;;5074901;28;20093;-64
2022/06/06 02:54:59;;;;;;;15.15;9.07;;;13.90;99.90;;;;;;5078725;28;20369;-64
2022/06/06 02:57:26;;;;;;;13.38;9.00;;;14.10;99.90;;;;;;5080756;28;20036;-63
2022/06/06 02:59:52;;;;;;;17.65;8.80;;;14.20;99.90;;;;;;5067296;28;20048;-64
2022/06/06 03:02:18;;;;;;;16.60;8.73;;;14.20;99.90;;;;;;5085056;28;20101;-65
2022/06/06 03:04:43;;;;;;;14.88;8.65;;;13.90;99.90;;;;;;5065341;28;20123;-65
2022/06/06 03:07:46;;;;;;;14.45;8.10;;;14.30;99.90;;;;;;5071085;28;20051;-64
2022/06/06 03:10:49;;;;;;;15.02;9.20;;;14.20;99.90;;;;;;5069750;28;20032;-66
2022/06/06 03:13:42;;;;;;;14.20;8.63;;;14.20;99.90;;;;;;5071405;28;20076;-66
2022/06/06 03:22:41;;;;;;;11.85;6.90;;;14.10;99.90;;;;;;5070308;28;20165;-64
2022/06/06 03:25:33;;;;;;;12.85;7.32;;;14.00;99.90;;;;;;5079478;28;20035;-65
2022/06/06 03:28:18;;;;;;;14.15;8.43;;;14.00;99.90;;;;;;5067684;28;20503;-64
2022/06/06 03:30:50;;;;;;;11.88;7.68;;;13.80;99.90;;;;;;5074507;28;20037;-65
2022/06/06 03:33:29;;;;;;;14.35;7.93;;;14.00;99.90;;;;;;5068423;28;20435;-65
2022/06/06 03:36:07;;;;;;;13.60;8.35;;;14.20;99.90;;;;;;5073421;28;20037;-65
2022/06/06 03:38:44;;;;;;;15.57;8.95;;;14.00;99.90;;;;;;5073802;28;20043;-64
2022/06/06 03:41:41;;;;;;;20.88;10.23;;;13.90;99.90;;;;;;5071165;28;20036;-65
2022/06/06 03:44:17;;;;;;;17.42;10.45;;;13.90;99.90;;;;;;5070461;28;20060;-65
2022/06/06 03:47:02;;;;;;;23.17;12.95;;;14.20;99.90;;;;;;5084798;28;20115;-65
2022/06/06 03:49:43;;;;;;;25.23;14.50;;;14.20;99.90;;;;;;5072335;28;20039;-64
2022/06/06 03:52:21;;;;;;;32.22;16.13;;;14.00;99.90;;;;;;5072129;28;20086;-67
2022/06/06 03:55:07;;;;;;;34.65;17.63;;;13.80;99.90;;;;;;5073640;28;20086;-64
2022/06/06 03:57:35;;;;;;;41.15;17.77;;;14.10;99.90;;;;;;5067216;28;20461;-63
2022/06/06 04:00:12;;;;;;;28.73;14.10;;;13.90;99.90;;;;;;5065951;28;20037;-65
2022/06/06 04:02:39;;;;;;;25.25;13.00;;;13.90;99.90;;;;;;5074106;28;20050;-64
2022/06/06 04:05:09;;;;;;;24.73;11.77;;;13.60;99.90;;;;;;5066089;28;20473;-65
2022/06/06 04:07:35;;;;;;;21.25;11.73;;;14.00;99.90;;;;;;5076488;28;20072;-64
2022/06/06 04:10:01;;;;;;;18.17;10.23;;;13.60;99.90;;;;;;5085315;28;20108;-64
2022/06/06 04:12:46;;;;;;;18.02;10.07;;;13.70;99.90;;;;;;5080447;28;20540;-63
2022/06/06 04:15:36;;;;;;;17.55;9.00;;;13.70;99.90;;;;;;5083614;28;20032;-65
2022/06/06 04:18:16;;;;;;;18.88;8.73;;;13.70;99.90;;;;;;5079817;28;20063;-65
2022/06/06 04:21:06;;;;;;;19.27;9.35;;;13.80;99.90;;;;;;5066614;28;20496;-63
2022/06/06 04:23:53;;;;;;;17.13;8.80;;;13.60;99.90;;;;;;5069271;28;20041;-63
2022/06/06 04:26:48;;;;;;;16.80;8.35;;;13.80;99.90;;;;;;5069169;28;20123;-63
2022/06/06 04:30:01;;;;;;;15.27;8.50;;;13.40;99.90;;;;;;5069254;28;20071;-63
2022/06/06 04:32:42;;;;;;;15.88;9.00;;;13.70;99.90;;;;;;5052125;28;20048;-63
2022/06/06 04:35:16;;;;;;;20.80;10.25;;;13.50;99.90;;;;;;5063944;28;20040;-65
2022/06/06 04:38:12;;;;;;;18.48;10.65;;;13.30;99.90;;;;;;5064800;28;20754;-63
2022/06/06 04:40:51;;;;;;;22.70;10.60;;;13.60;99.90;;;;;;5065039;28;20527;-64
2022/06/06 04:43:41;;;;;;;21.60;10.80;;;13.60;99.90;;;;;;5073743;28;20053;-64
2022/06/06 04:46:25;;;;;;;16.77;10.43;;;13.60;99.90;;;;;;5080270;28;20066;-66
2022/06/06 04:48:52;;;;;;;25.75;11.13;;;13.60;99.90;;;;;;5062796;28;20044;-63
2022/06/06 04:51:21;;;;;;;22.05;11.13;;;13.60;99.90;;;;;;5063281;28;20091;-64
2022/06/06 04:53:54;;;;;;;22.13;11.85;;;13.30;99.90;;;;;;5070082;28;20040;-64
2022/06/06 04:56:21;;;;;;;25.23;11.00;;;13.70;99.90;;;;;;5071332;28;20595;-64
2022/06/06 04:58:50;;;;;;;22.60;11.00;;;13.60;99.90;;;;;;5081795;28;20036;-65
2022/06/06 05:01:16;;;;;;;23.95;10.90;;;13.30;99.90;;;;;;5068750;28;20051;-63
2022/06/06 05:03:42;;;;;;;25.20;10.93;;;13.50;99.90;;;;;;5077035;28;20052;-65
2022/06/06 05:06:13;;;;;;;27.00;11.52;;;13.60;99.90;;;;;;5070526;28;20028;-64
2022/06/06 05:08:54;;;;;;;27.17;12.65;;;13.30;99.90;;;;;;5062164;28;20044;-64
2022/06/06 05:11:47;;;;;;;25.55;12.35;;;13.50;99.90;;;;;;5077370;28;20051;-64
2022/06/06 05:14:23;;;;;;;27.98;13.15;;;13.40;99.90;;;;;;5078889;28;20041;-65
2022/06/06 05:17:15;;;;;;;32.45;12.88;;;13.50;99.90;;;;;;5068654;28;20452;-65
2022/06/06 05:20:11;;;;;;;29.00;12.95;;;13.20;99.90;;;;;;5067577;28;20040;-64
2022/06/06 05:23:06;;;;;;;25.58;12.05;;;13.20;99.90;;;;;;5075934;28;20040;-64
2022/06/06 05:26:13;;;;;;;25.33;11.80;;;13.40;99.90;;;;;;5065002;28;20047;-63
2022/06/06 05:29:19;;;;;;;30.92;12.77;;;13.40;99.90;;;;;;5063695;28;20035;-64
2022/06/06 05:32:10;;;;;;;25.08;11.68;;;13.50;99.90;;;;;;5069675;28;20040;-64
2022/06/06 05:34:47;;;;;;;24.98;11.65;;;13.20;99.90;;;;;;5065215;28;20123;-64
2022/06/06 05:37:39;;;;;;;26.38;11.10;;;13.40;99.90;;;;;;5068973;28;20035;-64
2022/06/06 05:40:37;;;;;;;26.83;11.77;;;13.20;99.90;;;;;;5070186;28;20048;-65
2022/06/06 05:43:21;;;;;;;30.30;12.00;;;13.20;99.90;;;;;;5071219;28;20538;-63
2022/06/06 05:46:18;;;;;;;29.10;12.10;;;13.40;99.90;;;;;;5067565;28;20177;-65
2022/06/06 05:48:59;;;;;;;24.17;11.30;;;13.20;99.90;;;;;;5076102;28;20040;-64
2022/06/06 05:51:47;;;;;;;23.50;11.35;;;13.40;99.90;;;;;;5067054;28;20049;-64
2022/06/06 05:54:16;;;;;;;25.33;11.18;;;13.30;99.90;;;;;;5067346;28;20043;-64
2022/06/06 05:57:19;;;;;;;26.23;10.73;;;13.30;99.90;;;;;;5062332;28;20131;-64
2022/06/06 06:00:18;;;;;;;23.98;10.98;;;13.20;99.90;;;;;;5069575;28;20168;-63
2022/06/06 06:03:02;;;;;;;24.63;10.77;;;13.40;99.90;;;;;;5073410;28;20040;-63
2022/06/06 06:05:33;;;;;;;28.70;10.65;;;13.40;99.90;;;;;;5064002;28;20044;-63
2022/06/06 06:08:18;;;;;;;25.67;11.23;;;13.30;99.90;;;;;;5063997;28;20036;-64
2022/06/06 06:11:09;;;;;;;24.35;10.82;;;13.10;99.90;;;;;;5072084;28;20036;-65
2022/06/06 06:14:05;;;;;;;24.60;10.98;;;13.40;99.90;;;;;;5082143;28;20036;-65
2022/06/06 06:16:36;;;;;;;21.48;10.32;;;13.50;99.90;;;;;;5080044;28;20043;-65
2022/06/06 06:19:10;;;;;;;21.63;9.68;;;13.10;99.90;;;;;;5084450;28;20109;-65
2022/06/06 06:21:53;;;;;;;21.88;9.85;;;13.30;99.90;;;;;;5071738;28;20040;-64
2022/06/06 06:24:31;;;;;;;22.65;10.68;;;13.20;99.90;;;;;;5071181;28;20063;-65
2022/06/06 06:26:57;;;;;;;17.92;9.32;;;13.30;99.90;;;;;;5081498;28;20062;-65
2022/06/06 06:29:24;;;;;;;22.35;10.98;;;13.10;99.90;;;;;;5078153;28;20061;-64
2022/06/06 06:32:08;;;;;;;23.20;10.15;;;13.40;99.90;;;;;;5076163;28;20036;-65
2022/06/06 06:35:24;;;;;;;26.10;10.73;;;13.30;99.90;;;;;;5074930;28;20040;-64
2022/06/06 06:38:18;;;;;;;22.38;10.18;;;13.40;99.90;;;;;;5028304;28;20056;-65
2022/06/06 06:41:11;;;;;;;26.23;10.52;;;13.50;99.90;;;;;;5063003;28;20040;-65
2022/06/06 06:43:52;;;;;;;30.70;12.13;;;13.50;99.90;;;;;;5083009;28;20056;-64
2022/06/06 06:46:27;;;;;;;31.95;12.80;;;13.10;99.90;;;;;;5072931;28;20503;-65
2022/06/06 06:49:07;;;;;;;36.88;13.07;;;13.40;99.90;;;;;;5072410;28;20036;-65
2022/06/06 06:51:53;;;;;;;33.03;13.40;;;13.20;99.90;;;;;;5072524;28;20500;-65
2022/06/06 06:55:01;;;;;;;28.85;11.73;;;13.50;99.90;;;;;;5072558;28;20041;-65
2022/06/06 06:57:46;;;;;;;29.33;13.32;;;13.90;99.90;;;;;;5093292;28;20115;-65
2022/06/06 07:00:18;;;;;;;32.25;12.43;;;14.20;99.90;;;;;;5087885;28;20040;-65
2022/06/06 07:09:35;;;;;;;20.42;9.00;;;14.90;99.90;;;;;;4926739;28;20193;-64
2022/06/06 07:12:12;;;;;;;14.10;7.63;;;14.70;99.90;;;;;;4989133;28;20042;-63
2022/06/06 07:14:54;;;;;;;12.95;6.50;;;14.90;99.90;;;;;;5048695;28;20067;-66
2022/06/06 07:17:21;;;;;;;14.05;6.80;;;15.10;99.90;;;;;;5085930;28;20042;-66
2022/06/06 07:19:52;;;;;;;11.32;6.57;;;15.20;99.90;;;;;;5073831;28;20070;-66
2022/06/06 07:22:19;;;;;;;12.57;6.47;;;15.20;99.90;;;;;;5079365;28;20067;-65
2022/06/06 07:24:53;;;;;;;15.73;6.78;;;15.20;99.90;;;;;;5081503;28;20041;-66
2022/06/06 07:27:19;;;;;;;12.93;7.45;;;15.30;99.90;;;;;;5073379;28;20428;-66
2022/06/06 07:29:44;;;;;;;13.00;7.20;;;15.40;99.90;;;;;;5086259;28;20036;-66
2022/06/06 07:32:22;;;;;;;13.30;7.22;;;15.60;99.90;;;;;;5083323;28;20037;-66
2022/06/06 07:34:55;;;;;;;13.20;6.80;;;15.70;99.90;;;;;;5066954;28;20040;-66
2022/06/06 07:37:58;;;;;;;12.38;6.93;;;15.30;99.90;;;;;;5069837;28;20139;-66
2022/06/06 07:40:33;;;;;;;14.13;7.28;;;15.40;99.90;;;;;;5066893;28;20044;-66
2022/06/06 07:43:20;;;;;;;12.60;6.78;;;14.90;99.90;;;;;;5069709;28;20102;-65
2022/06/06 07:45:50;;;;;;;15.30;8.15;;;15.00;99.90;;;;;;5071382;28;20040;-65
2022/06/06 07:48:55;;;;;;;14.60;7.32;;;14.70;99.90;;;;;;5080035;28;20044;-65
2022/06/06 07:51:28;;;;;;;12.65;6.93;;;14.70;99.90;;;;;;5065754;28;20044;-65
2022/06/06 07:54:13;;;;;;;18.10;7.57;;;14.70;99.90;;;;;;5072930;28;20041;-66
2022/06/06 07:56:41;;;;;;;12.95;7.05;;;14.60;99.90;;;;;;5070893;28;20383;-66
2022/06/06 07:59:35;;;;;;;14.40;7.43;;;14.60;99.90;;;;;;5071896;28;20389;-66
2022/06/06 08:02:31;;;;;;;16.45;6.85;;;14.70;99.90;;;;;;5068612;28;20052;-66
2022/06/06 08:05:22;;;;;;;12.82;6.90;;;14.90;99.90;;;;;;5068079;28;20060;-66
2022/06/06 08:07:53;;;;;;;12.50;6.57;;;14.90;99.90;;;;;;5074516;28;20055;-66
2022/06/06 08:10:39;;;;;;;12.38;6.53;;;15.10;99.90;;;;;;5081291;28;20216;-66
2022/06/06 08:13:37;;;;;;;14.15;6.75;;;15.50;99.90;;;;;;5070886;28;20388;-67
2022/06/06 08:16:36;;;;;;;13.05;6.53;;;15.60;99.90;;;;;;5072789;28;20040;-66
2022/06/06 08:19:41;;;;;;;12.38;6.90;;;15.80;99.90;;;;;;5071161;28;20581;-65
2022/06/06 08:22:09;;;;;;;15.93;8.45;;;15.60;99.90;;;;;;5075974;28;20041;-65
2022/06/06 08:24:40;;;;;;;14.10;7.70;;;15.60;99.90;;;;;;5072049;28;20368;-65
2022/06/06 08:27:10;;;;;;;14.00;7.18;;;15.50;99.90;;;;;;5087474;28;20126;-65
2022/06/06 08:29:38;;;;;;;15.07;7.93;;;15.80;99.90;;;;;;5072382;28;20043;-65
2022/06/06 08:32:05;;;;;;;17.30;8.27;;;15.90;99.90;;;;;;5078731;28;20036;-64
2022/06/06 08:34:33;;;;;;;16.77;8.07;;;15.40;99.90;;;;;;5078872;28;20037;-66
2022/06/06 08:37:16;;;;;;;21.90;12.70;;;15.00;99.90;;;;;;5070306;28;20106;-64
2022/06/06 08:40:00;;;;;;;18.45;10.30;;;15.00;99.90;;;;;;5071783;28;20047;-65
2022/06/06 08:42:50;;;;;;;15.40;8.63;;;15.00;99.90;;;;;;5080358;28;20036;-65
2022/06/06 08:45:15;;;;;;;12.95;7.10;;;15.00;99.90;;;;;;5091943;28;20459;-65
2022/06/06 08:47:44;;;;;;;14.27;7.35;;;14.80;99.90;;;;;;5092553;28;20075;-64
2022/06/06 08:50:46;;;;;;;12.38;7.38;;;14.60;99.90;;;;;;5085371;28;20391;-64
2022/06/06 08:53:49;;;;;;;17.95;7.88;;;14.50;99.90;;;;;;5071461;28;20064;-65
2022/06/06 08:56:45;;;;;;;16.83;6.70;;;14.40;99.90;;;;;;5070616;28;20048;-64
2022/06/06 08:59:29;;;;;;;12.80;6.50;;;14.20;99.90;;;;;;5070919;28;20469;-64
2022/06/06 09:02:17;;;;;;;10.13;6.10;;;15.00;99.90;;;;;;5071647;28;20090;-65
2022/06/06 09:05:01;;;;;;;13.20;5.65;;;15.70;99.90;;;;;;5075347;28;20107;-64
2022/06/06 09:07:47;;;;;;;12.40;5.10;;;15.80;99.90;;;;;;5071713;28;20451;-65
2022/06/06 09:10:41;;;;;;;9.82;5.10;;;15.70;99.90;;;;;;5084708;28;20062;-65
2022/06/06 09:13:24;;;;;;;12.13;5.57;;;15.30;99.90;;;;;;5090307;28;20072;-66
2022/06/06 09:16:17;;;;;;;10.30;5.22;;;14.80;99.90;;;;;;5073898;28;20040;-65
2022/06/06 09:19:15;;;;;;;7.68;4.97;;;15.20;99.90;;;;;;5070054;28;20131;-64
2022/06/06 09:21:44;;;;;;;6.10;3.90;;;16.10;99.90;;;;;;5070587;28;20047;-65
2022/06/06 09:24:43;;;;;;;6.60;4.07;;;17.00;99.90;;;;;;5074519;28;20083;-65
2022/06/06 09:27:51;;;;;;;9.45;3.17;;;17.40;99.90;;;;;;5090365;28;20476;-65
2022/06/06 09:30:32;;;;;;;5.45;2.92;;;17.00;99.90;;;;;;5071331;28;20428;-64
2022/06/06 09:33:29;;;;;;;5.32;2.47;;;16.40;99.90;;;;;;5070782;28;20094;-64
2022/06/06 09:35:57;;;;;;;5.43;2.90;;;15.90;99.90;;;;;;5070546;28;20086;-64
2022/06/06 09:38:37;;;;;;;3.45;2.63;;;16.20;99.90;;;;;;5087104;28;20036;-64
2022/06/06 09:41:43;;;;;;;6.85;2.80;;;17.50;99.90;;;;;;5091880;28;20040;-64
2022/06/06 09:44:14;;;;;;;3.88;2.30;;;18.60;99.90;;;;;;5091339;28;20496;-64
2022/06/06 09:47:17;;;;;;;6.47;2.38;;;18.90;99.90;;;;;;5089566;28;20051;-64
2022/06/06 09:49:56;;;;;;;4.15;2.72;;;18.90;99.90;;;;;;5069424;28;20135;-65
2022/06/06 09:52:58;;;;;;;3.95;2.55;;;18.10;99.90;;;;;;5073781;28;20175;-64
2022/06/06 10:01:30;;;;;;;3.45;2.13;;;15.70;99.90;;;;;;5075429;28;20067;-64
2022/06/06 10:04:25;;;;;;;4.00;2.10;;;15.80;99.90;;;;;;5071910;28;20075;-63
2022/06/06 10:07:39;;;;;;;3.22;2.20;;;16.50;99.90;;;;;;5077397;28;20040;-63
2022/06/06 10:10:28;;;;;;;6.60;2.28;;;18.30;99.90;;;;;;5076911;28;20045;-63
2022/06/06 10:13:14;;;;;;;6.00;2.65;;;19.00;95.50;;;;;;5074827;28;20036;-62
2022/06/06 10:16:14;;;;;;;2.78;2.50;;;18.50;91.20;;;;;;5093118;28;20111;-65
2022/06/06 10:18:54;;;;;;;5.05;2.40;;;17.70;99.90;;;;;;5081874;28;20114;-65
2022/06/06 10:21:44;;;;;;;4.00;2.10;;;16.00;99.90;;;;;;5073871;28;20549;-65
2022/06/06 10:24:48;;;;;;;5.57;3.70;;;15.70;99.90;;;;;;5076326;28;20086;-65
2022/06/06 10:27:27;;;;;;;3.95;2.90;;;15.70;99.90;;;;;;5094424;28;20059;-64
2022/06/06 10:30:18;;;;;;;10.95;4.05;;;15.40;99.90;;;;;;5074355;28;20045;-65
2022/06/06 10:33:10;;;;;;;6.35;3.72;;;15.10;99.90;;;;;;5074906;28;20036;-64
2022/06/06 10:36:11;;;;;;;8.63;4.38;;;14.80;99.90;;;;;;5090986;28;20065;-63
2022/06/06 10:39:14;;;;;;;6.45;4.03;;;14.60;99.90;;;;;;5093144;28;20125;-64
2022/06/06 10:42:10;;;;;;;4.63;2.95;;;15.00;99.90;;;;;;5094295;28;20040;-63
2022/06/06 10:44:57;;;;;;;7.75;2.92;;;15.00;99.90;;;;;;5081127;28;20052;-63
2022/06/06 10:47:49;;;;;;;5.43;2.85;;;15.00;99.90;;;;;;5074349;28;20392;-63
2022/06/06 10:50:17;;;;;;;4.63;2.63;;;16.50;99.90;;;;;;5070563;28;20064;-62
2022/06/06 10:52:55;;;;;;;5.38;2.78;;;18.00;99.90;;;;;;5073973;28;20085;-63
2022/06/06 10:55:44;;;;;;;6.95;2.72;;;18.20;99.90;;;;;;5073549;28;20393;-62
2022/06/06 10:59:00;;;;;;;5.03;2.95;;;17.30;99.90;;;;;;5072788;28;20105;-62
2022/06/06 11:01:50;;;;;;;4.90;3.40;;;17.10;99.90;;;;;;5074213;28;20045;-63
2022/06/06 11:04:45;;;;;;;5.25;3.03;;;16.80;99.90;;;;;;5071915;28;20076;-63
2022/06/06 11:07:25;;;;;;;6.40;3.40;;;16.60;99.90;;;;;;5093396;28;20040;-63
2022/06/06 11:09:59;;;;;;;4.07;2.97;;;16.60;99.90;;;;;;5075986;28;20155;-62
2022/06/06 11:12:44;;;;;;;3.45;2.70;;;16.40;99.90;;;;;;5071417;28;20049;-63
2022/06/06 11:15:10;;;;;;;4.47;2.38;;;16.50;99.90;;;;;;5072743;28;20032;-62
2022/06/06 11:18:02;;;;;;;5.57;2.50;;;16.60;99.90;;;;;;5075065;28;20468;-63
2022/06/06 11:20:40;;;;;;;5.35;2.20;;;16.40;99.90;;;;;;5081378;28;20537;-63
2022/06/06 11:23:36;;;;;;;3.67;2.03;;;15.90;99.90;;;;;;5079121;28;20517;-64
2022/06/06 11:26:10;;;;;;;7.50;2.72;;;15.80;99.90;;;;;;5072511;28;20111;-63
2022/06/06 11:28:55;;;;;;;4.45;2.28;;;15.60;99.90;;;;;;5077255;28;20036;-63
2022/06/06 11:31:44;;;;;;;3.22;2.42;;;15.80;99.10;;;;;;5072648;28;20051;-61
2022/06/06 11:34:15;;;;;;;4.68;1.95;;;15.60;99.90;;;;;;5071190;28;20059;-62
2022/06/06 11:37:03;;;;;;;2.00;1.80;;;15.70;99.90;;;;;;5069691;28;20041;-62
2022/06/06 11:40:15;;;;;;;3.63;1.80;;;15.70;99.90;;;;;;5072794;28;20123;-63
2022/06/06 11:42:56;;;;;;;3.22;1.70;;;15.50;97.80;;;;;;5077665;28;20036;-62
2022/06/06 11:45:47;;;;;;;3.10;1.67;;;15.70;98.90;;;;;;5077783;28;20044;-62
2022/06/06 11:48:44;;;;;;;1.98;1.50;;;16.00;98.70;;;;;;5082020;28;20040;-63
2022/06/06 11:51:28;;;;;;;2.78;1.65;;;16.30;98.50;;;;;;5053983;28;20468;-62
2022/06/06 11:54:25;;;;;;;2.00;1.70;;;16.50;96.90;;;;;;5071412;28;20044;-62
2022/06/06 11:57:06;;;;;;;2.38;1.80;;;16.40;98.90;;;;;;5069627;28;20040;-63
2022/06/06 12:00:06;;;;;;;3.45;1.52;;;16.80;96.70;;;;;;5073016;28;20052;-63
2022/06/06 12:02:45;;;;;;;1.88;1.77;;;17.10;94.20;;;;;;5078288;28;20093;-63
2022/06/06 12:05:48;;;;;;;1.45;1.30;;;17.50;90.00;;;;;;5084148;28;20094;-62
2022/06/06 12:08:35;;;;;;;3.10;1.88;;;18.30;88.00;;;;;;5080293;28;20494;-62
2022/06/06 12:11:36;;;;;;;2.10;1.45;;;19.30;88.10;;;;;;5080981;28;20602;-63
2022/06/06 12:14:11;;;;;;;1.73;1.63;;;20.30;79.00;;;;;;5082999;28;20047;-62
2022/06/06 12:16:51;;;;;;;4.72;1.90;;;21.70;78.30;;;;;;5079903;28;20043;-63
2022/06/06 12:19:28;;;;;;;3.17;1.30;;;22.40;68.30;;;;;;5078380;28;20400;-63
2022/06/06 12:22:11;;;;;;;3.55;1.80;;;22.40;72.10;;;;;;5076487;28;20491;-63
2022/06/06 12:24:45;;;;;;;5.03;1.70;;;21.60;66.40;;;;;;5070657;28;20040;-62
2022/06/06 12:27:46;;;;;;;2.38;1.80;;;20.50;72.50;;;;;;5071310;28;20036;-62
2022/06/06 12:30:35;;;;;;;1.60;1.30;;;20.00;76.40;;;;;;5042020;28;20063;-63
2022/06/06 12:33:15;;;;;;;1.42;1.23;;;19.80;71.60;;;;;;5065206;28;20419;-63
2022/06/06 12:36:01;;;;;;;1.63;1.08;;;19.70;79.30;;;;;;5062140;28;20040;-62
2022/06/06 12:39:10;;;;;;;1.30;1.05;;;20.00;73.20;;;;;;5078078;28;20048;-63
2022/06/06 12:41:43;;;;;;;2.93;1.20;;;20.80;67.60;;;;;;5070385;28;20534;-63
2022/06/06 12:44:31;;;;;;;2.75;0.90;;;21.10;64.30;;;;;;5081155;28;20314;-64
2022/06/06 12:47:12;;;;;;;1.90;0.85;;;21.70;65.40;;;;;;5073549;28;20119;-62
2022/06/06 12:50:06;;;;;;;1.55;0.70;;;21.30;61.00;;;;;;5086606;28;20050;-63
2022/06/06 12:52:58;;;;;;;1.10;0.68;;;21.40;62.90;;;;;;5087041;28;20044;-63
2022/06/06 12:55:38;;;;;;;2.40;0.60;;;21.30;63.20;;;;;;5071368;28;20044;-63
2022/06/06 12:58:32;;;;;;;1.23;0.80;;;20.90;65.60;;;;;;5091027;28;20040;-63
2022/06/06 13:01:39;;;;;;;2.33;1.00;;;20.40;60.90;;;;;;5077749;28;20472;-64
2022/06/06 13:04:22;;;;;;;5.70;1.00;;;19.70;61.30;;;;;;5058788;28;20485;-63
2022/06/06 13:06:59;;;;;;;2.85;1.10;;;19.30;64.20;;;;;;5076664;28;20042;-63
2022/06/06 13:09:50;;;;;;;1.63;1.00;;;19.30;71.90;;;;;;5076500;28;20037;-63
2022/06/06 13:12:33;;;;;;;2.40;1.20;;;19.20;67.90;;;;;;5087005;28;20040;-62
2022/06/06 13:15:06;;;;;;;2.03;1.20;;;19.20;71.60;;;;;;5090920;28;20129;-62
2022/06/06 13:18:05;;;;;;;1.83;1.00;;;19.40;69.80;;;;;;5070460;28;20060;-63
2022/06/06 13:20:58;;;;;;;2.55;1.33;;;19.60;66.00;;;;;;5069019;28;20032;-62
2022/06/06 13:23:42;;;;;;;2.03;1.00;;;19.70;68.40;;;;;;5082244;28;20052;-63
2022/06/06 13:26:31;;;;;;;2.17;1.00;;;19.40;67.20;;;;;;5080596;28;20119;-63
2022/06/06 13:28:57;;;;;;;1.67;1.20;;;19.00;68.30;;;;;;5082839;28;20044;-62
2022/06/06 13:31:53;;;;;;;1.80;1.30;;;18.70;73.50;;;;;;5095002;28;20093;-62
2022/06/06 13:34:41;;;;;;;3.72;1.30;;;18.70;71.50;;;;;;5077961;28;20048;-63
2022/06/06 13:37:42;;;;;;;2.03;1.13;;;18.70;70.80;;;;;;5074623;28;20057;-63
2022/06/06 13:40:38;;;;;;;3.50;1.25;;;18.70;73.30;;;;;;5081610;28;20041;-62
2022/06/06 13:43:15;;;;;;;5.38;1.30;;;18.60;73.20;;;;;;5090661;28;20095;-63
2022/06/06 13:45:49;;;;;;;1.98;1.05;;;18.50;70.60;;;;;;5086712;28;20047;-63
2022/06/06 13:48:40;;;;;;;1.63;1.40;;;18.40;75.40;;;;;;5080406;28;20116;-63
2022/06/06 13:51:24;;;;;;;2.25;1.10;;;18.40;73.30;;;;;;5082620;28;20046;-62
2022/06/06 13:54:05;;;;;;;2.63;1.50;;;18.10;76.90;;;;;;5088982;28;20040;-63
2022/06/06 13:56:33;;;;;;;;;;;17.70;75.30;;;;;;5076374;28;20414;-63
2022/06/06 13:59:21;;;;;;;3.25;1.42;;;17.40;78.70;;;;;;5086706;28;20461;-63
2022/06/06 14:02:17;;;;;;;1.58;1.45;;;17.30;81.90;;;;;;5080929;28;20044;-63
2022/06/06 14:05:20;;;;;;;3.03;1.90;;;17.00;84.20;;;;;;5076314;28;20044;-62
2022/06/06 14:08:05;;;;;;;3.70;2.20;;;16.60;91.90;;;;;;5093192;28;20044;-62
2022/06/06 14:10:51;;;;;;;3.28;1.88;;;15.70;97.10;;;;;;5079860;28;20093;-63
2022/06/06 14:13:42;;;;;;;2.35;1.98;;;15.10;99.90;;;;;;5079943;28;20036;-62
2022/06/06 14:16:18;;;;;;;3.97;2.30;;;15.00;99.90;;;;;;5081967;28;20036;-62